createdAt,value
2023-03-10T00:00:15.859Z,35.50
2023-03-10T00:03:22.184Z,38.40
2023-03-10T00:06:13.906Z,38.20
2023-03-10T00:09:05.587Z,37.30
2023-03-10T00:11:54.298Z,38.10
2023-03-10T00:14:43.642Z,35.10
2023-03-10T00:17:32.321Z,45.60
2023-03-10T00:20:22.358Z,46.40
2023-03-10T00:23:11.217Z,41.50
2023-03-10T00:26:01.110Z,46.80
2023-03-10T00:28:50.041Z,63.90
2023-03-10T00:31:39.257Z,36.10
2023-03-10T00:34:29.634Z,65.70
2023-03-10T00:37:18.963Z,42.40
2023-03-10T00:40:11.133Z,46.80
2023-03-10T00:42:59.911Z,50.30
2023-03-10T00:45:49.202Z,59.80
2023-03-10T00:48:38.302Z,47.30
2023-03-10T00:51:27.312Z,49.60
2023-03-10T00:54:17.336Z,49.20
2023-03-10T00:57:06.324Z,50.50
2023-03-10T00:59:55.083Z,42.30
2023-03-10T01:02:44.079Z,52.80
2023-03-10T01:05:32.886Z,40.20
2023-03-10T01:08:22.387Z,44.40
2023-03-10T01:11:14.688Z,35.50
2023-03-10T01:14:07.356Z,36.20
2023-03-10T01:16:56.040Z,36.50
2023-03-10T01:19:45.244Z,37.50
2023-03-10T01:22:34.059Z,39.30
2023-03-10T01:25:23.333Z,43.20
2023-03-10T01:28:12.502Z,43.60
2023-03-10T01:31:01.726Z,47.40
2023-03-10T01:33:50.605Z,43.40
2023-03-10T01:36:42.371Z,40.00
2023-03-10T01:39:31.005Z,38.40
2023-03-10T01:42:20.290Z,39.50
2023-03-10T01:45:14.747Z,40.50
2023-03-10T01:48:04.313Z,34.30
2023-03-10T01:50:55.967Z,36.30
2023-03-10T01:53:45.271Z,39.40
2023-03-10T01:56:36.578Z,47.90
2023-03-10T01:59:27.947Z,45.10
2023-03-10T02:03:41.546Z,46.80
2023-03-10T02:06:32.394Z,49.80
2023-03-10T02:09:21.628Z,51.60
2023-03-10T02:12:13.104Z,47.90
2023-03-10T02:17:53.279Z,43.70
2023-03-10T02:24:01.303Z,41.40
2023-03-10T02:26:59.736Z,40.90
2023-03-10T02:30:09.791Z,44.20
2023-03-10T02:33:02.680Z,57.60
2023-03-10T02:35:51.865Z,61.50
2023-03-10T02:38:43.100Z,54.60
2023-03-10T02:41:35.448Z,56.90
2023-03-10T02:44:25.614Z,62.70
2023-03-10T02:47:16.302Z,50.80
2023-03-10T02:53:09.914Z,53.50
2023-03-10T02:56:02.836Z,54.10
2023-03-10T02:58:53.152Z,56.00
2023-03-10T03:01:42.602Z,59.90
2023-03-10T03:04:32.434Z,63.90
2023-03-10T03:07:21.345Z,66.50
2023-03-10T03:10:11.234Z,63.80
2023-03-10T03:12:59.946Z,61.10
2023-03-10T03:15:49.358Z,67.90
2023-03-10T03:18:38.608Z,56.80
2023-03-10T03:21:28.130Z,56.30
2023-03-10T03:24:18.250Z,51.50
2023-03-10T03:27:07.582Z,49.70
2023-03-10T03:29:58.453Z,58.50
2023-03-10T03:32:48.357Z,56.40
2023-03-10T03:35:38.208Z,58.00
2023-03-10T03:38:28.028Z,52.00
2023-03-10T03:41:16.826Z,46.80
2023-03-10T03:44:05.919Z,46.20
2023-03-10T03:46:55.819Z,43.70
2023-03-10T03:49:45.198Z,42.10
2023-03-10T03:52:34.443Z,44.10
2023-03-10T03:55:23.608Z,45.30
2023-03-10T03:58:13.325Z,51.50
2023-03-10T04:01:02.712Z,49.40
2023-03-10T04:03:54.676Z,58.80
2023-03-10T04:06:44.553Z,51.30
2023-03-10T04:09:33.571Z,45.40
2023-03-10T04:12:22.742Z,50.60
2023-03-10T04:15:12.677Z,48.40
2023-03-10T04:18:01.889Z,45.80
2023-03-10T04:20:50.950Z,50.30
2023-03-10T04:23:42.467Z,50.60
2023-03-10T04:26:33.001Z,43.20
2023-03-10T04:29:24.824Z,40.20
2023-03-10T04:32:14.420Z,43.80
2023-03-10T04:35:04.634Z,40.10
2023-03-10T04:37:54.779Z,40.80
2023-03-10T04:40:45.868Z,43.20
2023-03-10T04:43:35.253Z,35.80
2023-03-10T04:46:24.364Z,31.60
2023-03-10T04:49:15.423Z,32.70
2023-03-10T04:52:06.888Z,37.10
2023-03-10T04:54:55.941Z,33.90
2023-03-10T04:57:45.297Z,28.60
2023-03-10T05:00:34.192Z,29.60
2023-03-10T05:03:23.981Z,25.80
2023-03-10T05:06:15.561Z,24.80
2023-03-10T05:09:06.263Z,24.40
2023-03-10T05:11:55.417Z,20.30
2023-03-10T05:14:46.832Z,21.30
2023-03-10T05:17:35.908Z,20.20
2023-03-10T05:20:25.721Z,21.70
2023-03-10T05:23:14.772Z,16.90
2023-03-10T05:26:08.778Z,15.60
2023-03-10T05:28:58.547Z,16.10
2023-03-10T05:31:56.698Z,17.10
2023-03-10T05:34:50.096Z,17.30
2023-03-10T05:37:41.270Z,16.10
2023-03-10T05:40:30.253Z,14.90
2023-03-10T05:43:20.452Z,17.20
2023-03-10T05:46:11.298Z,13.90
2023-03-10T05:49:05.640Z,12.30
2023-03-10T05:51:55.048Z,14.90
2023-03-10T05:54:44.324Z,13.40
2023-03-10T05:57:34.555Z,10.30
2023-03-10T06:00:24.181Z,10.50
2023-03-10T06:03:18.286Z,10.10
2023-03-10T06:06:07.810Z,10.20
2023-03-10T06:08:57.025Z,9.80
2023-03-10T06:11:46.109Z,9.90
2023-03-10T06:14:34.704Z,7.30
2023-03-10T06:17:24.381Z,9.40
2023-03-10T06:20:14.021Z,7.00
2023-03-10T06:23:03.161Z,8.10
2023-03-10T06:26:02.141Z,8.10
2023-03-10T06:28:51.543Z,8.00
2023-03-10T06:31:40.211Z,6.30
2023-03-10T06:34:29.143Z,7.20
2023-03-10T06:37:18.010Z,8.30
2023-03-10T06:40:10.408Z,9.80
2023-03-10T06:42:58.983Z,7.90
2023-03-10T06:45:48.696Z,6.10
2023-03-10T06:48:38.456Z,5.70
2023-03-10T06:51:27.520Z,6.00
2023-03-10T06:54:16.068Z,5.10
2023-03-10T06:57:05.681Z,6.70
2023-03-10T06:59:54.733Z,7.10
2023-03-10T07:02:44.850Z,5.60
2023-03-10T07:05:33.595Z,8.00
2023-03-10T07:08:22.455Z,6.10
2023-03-10T07:11:11.326Z,7.60
2023-03-10T07:14:00.420Z,5.10
2023-03-10T07:16:49.365Z,5.40
2023-03-10T07:19:38.527Z,5.30
2023-03-10T07:22:27.125Z,7.00
2023-03-10T07:25:16.718Z,4.80
2023-03-10T07:28:06.954Z,6.20
2023-03-10T07:30:57.858Z,5.60
2023-03-10T07:33:46.988Z,5.60
2023-03-10T07:36:35.798Z,6.60
2023-03-10T07:39:24.580Z,6.70
2023-03-10T07:42:13.600Z,5.70
2023-03-10T07:45:05.376Z,6.40
2023-03-10T07:47:55.389Z,7.40
2023-03-10T07:50:44.124Z,6.00
2023-03-10T07:53:33.620Z,7.10
2023-03-10T07:56:22.684Z,5.00
2023-03-10T07:59:12.061Z,4.00
2023-03-10T08:02:00.731Z,4.30
2023-03-10T08:04:49.993Z,5.90
2023-03-10T08:07:39.138Z,6.60
2023-03-10T08:10:28.187Z,5.20
2023-03-10T08:13:17.026Z,6.70
2023-03-10T08:16:07.136Z,6.60
2023-03-10T08:18:55.860Z,7.30
2023-03-10T08:21:45.477Z,5.20
2023-03-10T08:24:34.103Z,6.00
2023-03-10T08:27:23.422Z,4.70
2023-03-10T08:30:13.515Z,6.30
2023-03-10T08:33:07.877Z,3.50
2023-03-10T08:36:12.166Z,3.60
2023-03-10T08:39:01.587Z,4.10
2023-03-10T08:41:50.356Z,4.80
2023-03-10T08:44:40.160Z,3.40
2023-03-10T08:47:31.882Z,4.30
2023-03-10T08:50:21.184Z,4.10
2023-03-10T08:53:10.006Z,4.70
2023-03-10T08:55:59.727Z,4.40
2023-03-10T08:58:48.678Z,4.30
2023-03-10T09:01:38.500Z,3.20
2023-03-10T09:04:27.220Z,4.30
2023-03-10T09:07:16.406Z,3.00
2023-03-10T09:10:05.522Z,3.20
2023-03-10T09:13:11.115Z,4.40
2023-03-10T09:16:01.800Z,6.40
2023-03-10T09:18:50.724Z,3.20
2023-03-10T09:21:39.733Z,5.00
2023-03-10T09:24:28.699Z,5.50
2023-03-10T09:27:17.476Z,6.10
2023-03-10T09:30:07.604Z,4.90
2023-03-10T09:32:56.894Z,4.00
2023-03-10T09:35:52.938Z,4.20
2023-03-10T09:38:46.251Z,4.80
2023-03-10T09:41:41.634Z,4.50
2023-03-10T09:44:34.363Z,4.90
2023-03-10T09:47:26.671Z,7.50
2023-03-10T09:50:38.022Z,6.30
2023-03-10T09:56:29.755Z,3.90
2023-03-10T09:59:34.639Z,4.00
2023-03-10T10:02:32.700Z,3.90
2023-03-10T10:05:27.902Z,5.60
2023-03-10T10:08:24.820Z,4.90
2023-03-10T10:11:17.275Z,4.20
2023-03-10T10:14:22.375Z,4.00
2023-03-10T10:17:33.803Z,4.10
2023-03-10T10:20:33.567Z,3.80
2023-03-10T10:23:47.391Z,4.00
2023-03-10T10:26:36.055Z,5.20
2023-03-10T10:29:29.471Z,5.00
2023-03-10T10:32:18.435Z,3.70
2023-03-10T10:35:15.558Z,3.50
2023-03-10T10:38:20.757Z,5.10
2023-03-10T10:41:22.764Z,5.00
2023-03-10T10:44:16.630Z,3.10
2023-03-10T10:47:05.983Z,3.70
2023-03-10T10:49:55.442Z,5.30
2023-03-10T10:52:48.986Z,3.10
2023-03-10T10:55:37.590Z,4.60
2023-03-10T10:58:35.673Z,4.90
2023-03-10T11:01:27.274Z,4.10
2023-03-10T11:04:17.634Z,4.80
2023-03-10T11:07:24.022Z,3.60
2023-03-10T11:10:25.407Z,4.00
2023-03-10T11:13:24.019Z,4.40
2023-03-10T11:16:47.726Z,4.60
2023-03-10T11:19:49.836Z,3.10
2023-03-10T11:22:57.025Z,5.80
2023-03-10T11:25:52.653Z,3.10
2023-03-10T11:29:04.868Z,2.60
2023-03-10T11:32:08.475Z,4.80
2023-03-10T11:34:58.536Z,6.20
2023-03-10T11:37:55.193Z,3.30
2023-03-10T11:40:49.756Z,4.30
2023-03-10T11:43:51.103Z,3.50
2023-03-10T11:46:46.032Z,3.80
2023-03-10T11:49:40.369Z,3.70
2023-03-10T11:52:32.018Z,5.50
2023-03-10T11:55:22.051Z,3.40
2023-03-10T11:58:40.510Z,3.40
2023-03-10T12:02:14.314Z,3.70
2023-03-10T12:05:18.004Z,4.50
2023-03-10T12:08:07.098Z,3.50
2023-03-10T12:10:57.169Z,4.50
2023-03-10T12:13:49.903Z,3.30
2023-03-10T12:16:41.606Z,3.10
2023-03-10T12:19:30.258Z,4.70
2023-03-10T12:22:22.102Z,4.70
2023-03-10T12:25:33.333Z,3.70
2023-03-10T12:28:25.239Z,4.20
2023-03-10T12:31:39.343Z,2.30
2023-03-10T12:34:32.541Z,2.60
2023-03-10T12:37:23.443Z,3.60
2023-03-10T12:43:44.959Z,3.30
2023-03-10T12:46:51.009Z,4.00
2023-03-10T12:49:53.038Z,3.60
2023-03-10T12:52:45.059Z,5.30
2023-03-10T12:55:33.943Z,4.50
2023-03-10T12:58:26.041Z,5.10
2023-03-10T13:01:22.599Z,5.40
2023-03-10T13:04:19.509Z,4.40
2023-03-10T13:07:15.814Z,2.70
2023-03-10T13:10:07.474Z,4.10
2023-03-10T13:13:01.882Z,3.90
2023-03-10T13:16:02.627Z,3.40
2023-03-10T13:18:53.550Z,3.60
2023-03-10T13:21:44.544Z,3.50
2023-03-10T13:24:39.094Z,2.40
2023-03-10T13:27:30.943Z,3.80
2023-03-10T13:30:21.768Z,1.90
2023-03-10T13:36:30.233Z,3.20
2023-03-10T13:39:27.720Z,1.90
2023-03-10T13:42:40.798Z,2.80
2023-03-10T13:45:35.719Z,2.10
2023-03-10T13:48:26.387Z,2.80
2023-03-10T13:51:18.541Z,3.50
2023-03-10T13:54:23.770Z,1.80
2023-03-10T13:57:33.707Z,1.80
2023-03-10T14:00:25.986Z,2.80
2023-03-10T14:03:15.841Z,3.40
2023-03-10T14:06:13.669Z,4.80
2023-03-10T14:09:23.604Z,2.40
2023-03-10T14:12:13.737Z,4.00
2023-03-10T14:15:38.831Z,3.40
2023-03-10T14:18:35.592Z,3.50
2023-03-10T14:21:26.971Z,5.70
2023-03-10T14:24:16.393Z,4.10
2023-03-10T14:27:10.224Z,3.10
2023-03-10T14:30:04.805Z,3.40
2023-03-10T14:32:55.216Z,2.70
2023-03-10T14:35:46.114Z,1.90
2023-03-10T14:38:35.188Z,4.80
2023-03-10T14:41:25.299Z,2.90
2023-03-10T14:44:14.307Z,3.50
2023-03-10T14:47:03.075Z,2.40
2023-03-10T14:49:52.172Z,2.70
2023-03-10T14:52:40.949Z,4.00
2023-03-10T14:55:30.093Z,2.70
2023-03-10T14:58:22.011Z,2.20
2023-03-10T15:01:10.930Z,2.40
2023-03-10T15:03:59.553Z,3.20
2023-03-10T15:06:48.951Z,4.30
2023-03-10T15:09:37.757Z,3.30
2023-03-10T15:12:26.697Z,13.40
2023-03-10T15:15:22.144Z,2.50
2023-03-10T15:18:14.266Z,3.90
2023-03-10T15:21:03.429Z,3.50
2023-03-10T15:23:52.242Z,3.20
2023-03-10T15:26:41.270Z,3.40
2023-03-10T15:29:30.814Z,4.40
2023-03-10T15:32:19.496Z,3.50
2023-03-10T15:35:10.936Z,4.20
2023-03-10T15:37:59.712Z,2.90
2023-03-10T15:40:48.805Z,3.50
2023-03-10T15:43:37.486Z,4.20
2023-03-10T15:46:27.128Z,4.20
2023-03-10T15:49:16.124Z,3.30
2023-03-10T15:52:05.149Z,2.90
2023-03-10T15:54:54.111Z,3.10
2023-03-10T15:57:44.908Z,2.70
2023-03-10T16:00:33.625Z,5.80
2023-03-10T16:03:22.592Z,3.90
2023-03-10T16:06:12.689Z,2.80
2023-03-10T16:09:01.666Z,5.20
2023-03-10T16:11:50.411Z,2.70
2023-03-10T16:14:39.313Z,5.10
2023-03-10T16:17:28.852Z,7.80
2023-03-10T16:20:19.469Z,2.50
2023-03-10T16:23:08.116Z,3.50
2023-03-10T16:26:21.334Z,5.20
2023-03-10T16:29:10.143Z,5.30
2023-03-10T16:31:59.212Z,5.00
2023-03-10T16:34:48.112Z,6.10
2023-03-10T16:37:37.147Z,7.20
2023-03-10T16:40:26.184Z,4.70
2023-03-10T16:43:14.955Z,7.50
2023-03-10T16:46:25.715Z,6.90
2023-03-10T16:49:16.113Z,4.90
2023-03-10T16:52:07.975Z,5.10
2023-03-10T16:54:58.505Z,4.20
2023-03-10T16:57:47.403Z,4.90
2023-03-10T17:00:37.404Z,4.10
2023-03-10T17:03:26.221Z,5.10
2023-03-10T17:06:18.333Z,5.80
2023-03-10T17:09:09.180Z,3.70
2023-03-10T17:11:58.148Z,7.20
2023-03-10T17:14:47.042Z,4.10
2023-03-10T17:17:36.058Z,3.70
2023-03-10T17:20:25.700Z,3.70
2023-03-10T17:23:15.013Z,3.10
2023-03-10T17:26:03.918Z,4.40
2023-03-10T17:28:53.289Z,7.10
2023-03-10T17:31:43.936Z,5.10
2023-03-10T17:34:33.469Z,5.10
2023-03-10T17:37:22.055Z,9.60
2023-03-10T17:40:15.396Z,7.10
2023-03-10T17:43:17.704Z,7.80
2023-03-10T17:46:15.792Z,17.90
2023-03-10T17:49:14.802Z,10.50
2023-03-10T17:52:03.689Z,24.10
2023-03-10T17:54:52.317Z,18.30
2023-03-10T17:57:41.087Z,17.50
2023-03-10T18:00:29.776Z,17.50
2023-03-10T18:03:20.320Z,63.70
2023-03-10T18:06:20.348Z,81.10
2023-03-10T18:09:12.568Z,18.70
2023-03-10T18:12:01.229Z,21.90
2023-03-10T18:14:50.047Z,24.60
2023-03-10T18:17:39.111Z,21.30
2023-03-10T18:20:28.715Z,21.90
2023-03-10T18:23:20.669Z,20.50
2023-03-10T18:26:18.460Z,28.40
2023-03-10T18:29:07.292Z,23.00
2023-03-10T18:31:56.248Z,25.00
2023-03-10T18:34:45.215Z,21.60
2023-03-10T18:37:34.097Z,20.60
2023-03-10T18:40:23.090Z,64.80
2023-03-10T18:43:12.878Z,34.60
2023-03-10T18:46:02.219Z,34.80
2023-03-10T18:48:56.104Z,25.30
2023-03-10T18:51:44.999Z,41.70
2023-03-10T18:54:34.172Z,38.00
2023-03-10T18:57:22.849Z,27.70
2023-03-10T19:00:15.056Z,58.20
2023-03-10T19:03:04.031Z,53.80
2023-03-10T19:05:56.289Z,43.40
2023-03-10T19:08:44.984Z,44.60
2023-03-10T19:11:36.218Z,31.30
2023-03-10T19:17:13.979Z,38.30
2023-03-10T19:20:04.491Z,36.00
2023-03-10T19:22:53.620Z,38.50
2023-03-10T19:25:42.778Z,31.60
2023-03-10T19:28:31.962Z,25.90
2023-03-10T19:31:20.858Z,19.90
2023-03-10T19:34:10.445Z,18.10
2023-03-10T19:36:59.375Z,15.60
2023-03-10T19:39:48.204Z,17.00
2023-03-10T19:42:38.918Z,16.20
2023-03-10T19:45:28.725Z,20.50
2023-03-10T19:48:17.756Z,19.20
2023-03-10T19:51:07.746Z,20.40
2023-03-10T19:53:58.142Z,18.90
2023-03-10T19:56:52.091Z,25.50
2023-03-10T19:59:41.862Z,24.60
2023-03-10T20:02:32.548Z,24.20
2023-03-10T20:05:22.945Z,24.80
2023-03-10T20:08:12.047Z,21.50
2023-03-10T20:11:02.337Z,23.20
2023-03-10T20:13:53.288Z,22.10
2023-03-10T20:16:42.365Z,27.30
2023-03-10T20:19:31.618Z,29.10
2023-03-10T20:22:20.456Z,26.80
2023-03-10T20:25:11.771Z,24.60
2023-03-10T20:30:49.317Z,22.20
2023-03-10T20:33:38.086Z,20.50
2023-03-10T20:36:27.064Z,23.50
2023-03-10T20:39:17.167Z,26.40
2023-03-10T20:42:06.496Z,22.90
2023-03-10T20:44:55.140Z,22.40
2023-03-10T20:47:44.126Z,22.80
2023-03-10T20:50:34.928Z,20.40
2023-03-10T20:53:24.140Z,24.80
2023-03-10T20:56:14.366Z,19.70
2023-03-10T20:59:03.421Z,26.20
2023-03-10T21:01:52.387Z,27.10
2023-03-10T21:04:44.043Z,21.60
2023-03-10T21:07:35.717Z,24.20
2023-03-10T21:10:26.875Z,25.80
2023-03-10T21:13:15.910Z,25.90
2023-03-10T21:16:05.307Z,21.30
2023-03-10T21:18:54.116Z,21.30
2023-03-10T21:21:43.037Z,23.20
2023-03-10T21:24:31.808Z,22.50
2023-03-10T21:27:21.158Z,20.00
2023-03-10T21:30:12.914Z,20.20
2023-03-10T21:33:01.911Z,16.50
2023-03-10T21:35:50.699Z,17.00
2023-03-10T21:38:40.302Z,14.20
2023-03-10T21:41:30.269Z,15.90
2023-03-10T21:44:20.060Z,16.90
2023-03-10T21:47:08.737Z,14.10
2023-03-10T21:49:57.587Z,14.80
2023-03-10T21:52:47.398Z,15.70
2023-03-10T21:55:38.205Z,15.40
2023-03-10T21:58:27.136Z,14.30
2023-03-10T22:01:17.992Z,16.30
2023-03-10T22:04:06.643Z,16.50
2023-03-10T22:06:55.461Z,13.90
2023-03-10T22:09:44.224Z,12.10
2023-03-10T22:12:33.679Z,14.20
2023-03-10T22:15:25.713Z,13.30
2023-03-10T22:18:14.493Z,12.00
2023-03-10T22:21:03.188Z,11.90
2023-03-10T22:23:52.073Z,10.80
2023-03-10T22:26:40.899Z,10.00
2023-03-10T22:29:30.056Z,9.20
2023-03-10T22:32:18.962Z,13.50
2023-03-10T22:35:10.281Z,11.60
2023-03-10T22:40:48.942Z,9.00
2023-03-10T22:43:37.782Z,7.90
2023-03-10T22:46:26.930Z,7.80
2023-03-10T22:49:15.941Z,9.10
2023-03-10T22:52:07.141Z,8.80
2023-03-10T22:54:55.763Z,9.70
2023-03-10T22:57:44.702Z,8.10
2023-03-10T23:00:34.481Z,8.00
2023-03-10T23:03:23.295Z,8.10
2023-03-10T23:06:13.629Z,7.80
2023-03-10T23:09:04.960Z,8.10
2023-03-10T23:14:42.634Z,7.10
2023-03-10T23:17:31.317Z,9.00
2023-03-10T23:20:20.927Z,7.00
2023-03-10T23:23:12.535Z,7.70
2023-03-10T23:26:01.450Z,7.90
2023-03-10T23:28:50.137Z,7.20
2023-03-10T23:31:39.455Z,6.50
2023-03-10T23:34:28.150Z,6.50
2023-03-10T23:37:17.065Z,6.60
2023-03-10T23:40:10.674Z,5.50
2023-03-10T23:43:01.388Z,7.20
2023-03-10T23:45:50.399Z,7.70
2023-03-10T23:48:39.469Z,7.80
2023-03-10T23:51:29.002Z,7.50
2023-03-10T23:54:22.489Z,7.00
2023-03-10T23:57:11.385Z,6.00
